sensor_id;sensor_type;location;lat;lon;timestamp;pressure;altitude;pressure_sealevel;temperature;humidity
46211;BME280;52144;48.040;-1.594;2023-03-21T00:01:51;101155.47;;;11.73;94.55
46211;BME280;52144;48.040;-1.594;2023-03-21T00:04:21;101146.16;;;11.81;95.18
46211;BME280;52144;48.040;-1.594;2023-03-21T00:06:49;101146.19;;;11.61;97.56
46211;BME280;52144;48.040;-1.594;2023-03-21T00:09:17;101135.97;;;11.71;95.39
46211;BME280;52144;48.040;-1.594;2023-03-21T00:11:45;101140.75;;;11.83;95.16
46211;BME280;52144;48.040;-1.594;2023-03-21T00:14:13;101125.72;;;11.80;95.14
46211;BME280;52144;48.040;-1.594;2023-03-21T00:16:44;101127.97;;;11.71;95.71
46211;BME280;52144;48.040;-1.594;2023-03-21T00:19:16;101114.72;;;11.68;96.94
46211;BME280;52144;48.040;-1.594;2023-03-21T00:21:46;101109.13;;;11.74;96.76
46211;BME280;52144;48.040;-1.594;2023-03-21T00:24:35;101114.00;;;12.05;94.59
46211;BME280;52144;48.040;-1.594;2023-03-21T00:27:03;101104.97;;;11.87;96.09
46211;BME280;52144;48.040;-1.594;2023-03-21T00:29:51;101099.53;;;11.90;96.48
46211;BME280;52144;48.040;-1.594;2023-03-21T00:32:20;101105.75;;;11.91;94.70
46211;BME280;52144;48.040;-1.594;2023-03-21T00:34:48;101103.00;;;11.92;96.86
46211;BME280;52144;48.040;-1.594;2023-03-21T00:37:38;101107.50;;;12.11;94.53
46211;BME280;52144;48.040;-1.594;2023-03-21T00:40:07;101104.31;;;12.02;95.37
46211;BME280;52144;48.040;-1.594;2023-03-21T00:42:50;101101.56;;;12.04;95.68
46211;BME280;52144;48.040;-1.594;2023-03-21T00:45:18;101110.94;;;12.13;95.33
46211;BME280;52144;48.040;-1.594;2023-03-21T00:47:47;101108.66;;;12.05;94.15
46211;BME280;52144;48.040;-1.594;2023-03-21T00:50:15;101100.72;;;12.03;94.64
46211;BME280;52144;48.040;-1.594;2023-03-21T00:52:45;101113.28;;;12.20;94.06
46211;BME280;52144;48.040;-1.594;2023-03-21T00:55:14;101098.78;;;12.26;93.69
46211;BME280;52144;48.040;-1.594;2023-03-21T00:57:42;101101.00;;;12.16;94.24
46211;BME280;52144;48.040;-1.594;2023-03-21T01:00:16;101098.81;;;12.43;93.82
46211;BME280;52144;48.040;-1.594;2023-03-21T01:02:44;101103.13;;;12.48;93.75
46211;BME280;52144;48.040;-1.594;2023-03-21T01:05:32;101104.34;;;12.40;93.18
46211;BME280;52144;48.040;-1.594;2023-03-21T01:08:20;101097.53;;;12.52;92.60
46211;BME280;52144;48.040;-1.594;2023-03-21T01:11:02;101095.53;;;12.38;92.94
46211;BME280;52144;48.040;-1.594;2023-03-21T01:13:30;101104.78;;;12.50;93.85
46211;BME280;52144;48.040;-1.594;2023-03-21T01:16:04;101101.28;;;12.67;92.57
46211;BME280;52144;48.040;-1.594;2023-03-21T01:18:33;101094.78;;;12.73;91.26
46211;BME280;52144;48.040;-1.594;2023-03-21T01:21:05;101091.44;;;12.87;91.64
46211;BME280;52144;48.040;-1.594;2023-03-21T01:23:35;101085.88;;;12.72;92.36
46211;BME280;52144;48.040;-1.594;2023-03-21T01:26:04;101088.03;;;12.83;91.37
46211;BME280;52144;48.040;-1.594;2023-03-21T01:28:35;101098.19;;;12.94;91.32
46211;BME280;52144;48.040;-1.594;2023-03-21T01:31:04;101085.50;;;12.80;91.15
46211;BME280;52144;48.040;-1.594;2023-03-21T01:33:33;101088.41;;;12.75;92.06
46211;BME280;52144;48.040;-1.594;2023-03-21T01:36:01;101083.13;;;12.74;91.67
46211;BME280;52144;48.040;-1.594;2023-03-21T01:38:40;101083.03;;;12.75;91.87
46211;BME280;52144;48.040;-1.594;2023-03-21T01:41:17;101091.13;;;12.74;91.89
46211;BME280;52144;48.040;-1.594;2023-03-21T01:43:47;101068.88;;;12.73;92.81
46211;BME280;52144;48.040;-1.594;2023-03-21T01:46:33;101071.44;;;12.76;92.63
46211;BME280;52144;48.040;-1.594;2023-03-21T01:49:21;101063.00;;;12.67;92.04
46211;BME280;52144;48.040;-1.594;2023-03-21T01:51:53;101049.84;;;12.62;93.28
46211;BME280;52144;48.040;-1.594;2023-03-21T01:54:33;101050.84;;;12.59;92.41
46211;BME280;52144;48.040;-1.594;2023-03-21T01:57:05;101043.31;;;12.68;93.38
46211;BME280;52144;48.040;-1.594;2023-03-21T01:59:38;101035.72;;;12.77;92.41
46211;BME280;52144;48.040;-1.594;2023-03-21T02:02:10;101036.09;;;12.70;92.93
46211;BME280;52144;48.040;-1.594;2023-03-21T02:04:39;101022.81;;;12.68;92.95
46211;BME280;52144;48.040;-1.594;2023-03-21T02:07:18;101011.63;;;12.60;93.79
46211;BME280;52144;48.040;-1.594;2023-03-21T02:09:52;101011.63;;;12.77;92.59
46211;BME280;52144;48.040;-1.594;2023-03-21T02:12:21;101019.66;;;12.77;93.06
46211;BME280;52144;48.040;-1.594;2023-03-21T02:14:50;101012.44;;;12.62;94.24
46211;BME280;52144;48.040;-1.594;2023-03-21T02:17:25;101017.59;;;12.65;93.82
46211;BME280;52144;48.040;-1.594;2023-03-21T02:23:43;101009.50;;;12.67;94.06
46211;BME280;52144;48.040;-1.594;2023-03-21T02:29:56;100999.59;;;12.86;93.13
46211;BME280;52144;48.040;-1.594;2023-03-21T02:32:46;101000.69;;;12.82;93.21
46211;BME280;52144;48.040;-1.594;2023-03-21T02:35:30;100998.44;;;12.74;94.39
46211;BME280;52144;48.040;-1.594;2023-03-21T02:38:10;101000.63;;;12.83;94.30
46211;BME280;52144;48.040;-1.594;2023-03-21T02:40:45;100996.53;;;12.59;95.39
46211;BME280;52144;48.040;-1.594;2023-03-21T02:43:23;100986.84;;;12.74;94.81
46211;BME280;52144;48.040;-1.594;2023-03-21T02:45:58;100995.34;;;12.82;94.62
46211;BME280;52144;48.040;-1.594;2023-03-21T02:48:31;100988.69;;;12.73;95.37
46211;BME280;52144;48.040;-1.594;2023-03-21T02:51:17;100988.56;;;12.57;97.01
46211;BME280;52144;48.040;-1.594;2023-03-21T02:53:50;100980.66;;;12.73;96.47
46211;BME280;52144;48.040;-1.594;2023-03-21T02:56:40;100973.19;;;12.80;96.35
46211;BME280;52144;48.040;-1.594;2023-03-21T02:59:09;100966.66;;;12.85;95.14
46211;BME280;52144;48.040;-1.594;2023-03-21T03:01:37;100966.03;;;12.98;95.23
46211;BME280;52144;48.040;-1.594;2023-03-21T03:04:17;100970.66;;;12.94;95.97
46211;BME280;52144;48.040;-1.594;2023-03-21T03:06:58;100962.47;;;12.80;96.37
46211;BME280;52144;48.040;-1.594;2023-03-21T03:09:38;100962.34;;;12.83;97.17
46211;BME280;52144;48.040;-1.594;2023-03-21T03:12:16;100957.72;;;12.87;97.31
46211;BME280;52144;48.040;-1.594;2023-03-21T03:14:52;100954.06;;;12.88;96.33
46211;BME280;52144;48.040;-1.594;2023-03-21T03:17:47;100955.31;;;12.98;97.54
46211;BME280;52144;48.040;-1.594;2023-03-21T03:20:27;100959.56;;;13.02;98.22
46211;BME280;52144;48.040;-1.594;2023-03-21T03:23:04;100969.91;;;12.38;100.00
46211;BME280;52144;48.040;-1.594;2023-03-21T03:25:42;100981.75;;;12.69;100.00
46211;BME280;52144;48.040;-1.594;2023-03-21T03:28:13;100974.91;;;12.27;100.00
46211;BME280;52144;48.040;-1.594;2023-03-21T03:30:42;100959.19;;;12.75;100.00
46211;BME280;52144;48.040;-1.594;2023-03-21T03:33:32;100969.41;;;12.67;100.00
46211;BME280;52144;48.040;-1.594;2023-03-21T03:36:03;100969.56;;;12.63;100.00
46211;BME280;52144;48.040;-1.594;2023-03-21T03:38:35;100949.22;;;12.78;100.00
46211;BME280;52144;48.040;-1.594;2023-03-21T03:41:09;100939.97;;;12.84;100.00
46211;BME280;52144;48.040;-1.594;2023-03-21T03:43:44;100941.47;;;12.90;100.00
46211;BME280;52144;48.040;-1.594;2023-03-21T03:46:18;100957.47;;;12.91;100.00
46211;BME280;52144;48.040;-1.594;2023-03-21T03:48:53;100949.50;;;12.90;100.00
46211;BME280;52144;48.040;-1.594;2023-03-21T03:51:25;100950.66;;;12.32;100.00
46211;BME280;52144;48.040;-1.594;2023-03-21T03:53:56;100964.53;;;12.75;100.00
46211;BME280;52144;48.040;-1.594;2023-03-21T03:56:27;100966.13;;;12.79;100.00
46211;BME280;52144;48.040;-1.594;2023-03-21T03:58:56;100968.38;;;12.52;100.00
46211;BME280;52144;48.040;-1.594;2023-03-21T04:01:23;100975.78;;;12.64;100.00
46211;BME280;52144;48.040;-1.594;2023-03-21T04:03:52;100982.38;;;12.57;100.00
46211;BME280;52144;48.040;-1.594;2023-03-21T04:06:37;100986.09;;;12.89;100.00
46211;BME280;52144;48.040;-1.594;2023-03-21T04:09:05;100974.91;;;12.63;100.00
46211;BME280;52144;48.040;-1.594;2023-03-21T04:11:47;100978.72;;;12.40;100.00
46211;BME280;52144;48.040;-1.594;2023-03-21T04:14:15;100978.78;;;12.58;100.00
46211;BME280;52144;48.040;-1.594;2023-03-21T04:16:43;100966.34;;;12.74;100.00
46211;BME280;52144;48.040;-1.594;2023-03-21T04:19:11;100972.00;;;12.85;100.00
46211;BME280;52144;48.040;-1.594;2023-03-21T04:21:38;100974.22;;;12.77;100.00
46211;BME280;52144;48.040;-1.594;2023-03-21T04:24:07;100972.41;;;12.95;100.00
46211;BME280;52144;48.040;-1.594;2023-03-21T04:26:35;100984.22;;;12.91;100.00
46211;BME280;52144;48.040;-1.594;2023-03-21T04:29:04;100969.34;;;13.03;100.00
46211;BME280;52144;48.040;-1.594;2023-03-21T04:31:32;100970.59;;;12.78;100.00
46211;BME280;52144;48.040;-1.594;2023-03-21T04:34:04;100972.78;;;12.88;100.00
46211;BME280;52144;48.040;-1.594;2023-03-21T04:36:35;100972.19;;;12.82;100.00
46211;BME280;52144;48.040;-1.594;2023-03-21T04:39:08;100967.59;;;13.02;100.00
46211;BME280;52144;48.040;-1.594;2023-03-21T04:41:38;100973.56;;;12.90;100.00
46211;BME280;52144;48.040;-1.594;2023-03-21T04:44:09;100961.91;;;13.08;100.00
46211;BME280;52144;48.040;-1.594;2023-03-21T04:46:37;100966.34;;;13.09;100.00
46211;BME280;52144;48.040;-1.594;2023-03-21T04:49:06;100966.34;;;13.09;100.00
46211;BME280;52144;48.040;-1.594;2023-03-21T04:51:34;100964.13;;;13.00;100.00
46211;BME280;52144;48.040;-1.594;2023-03-21T04:54:02;100965.63;;;12.88;100.00
46211;BME280;52144;48.040;-1.594;2023-03-21T04:56:31;100969.38;;;12.49;100.00
46211;BME280;52144;48.040;-1.594;2023-03-21T04:59:04;100962.47;;;12.80;100.00
46211;BME280;52144;48.040;-1.594;2023-03-21T05:01:34;100958.63;;;12.85;100.00
46211;BME280;52144;48.040;-1.594;2023-03-21T05:04:03;100949.44;;;12.74;100.00
46211;BME280;52144;48.040;-1.594;2023-03-21T05:06:31;100952.69;;;12.80;100.00
46211;BME280;52144;48.040;-1.594;2023-03-21T05:09:00;100956.13;;;12.65;100.00
46211;BME280;52144;48.040;-1.594;2023-03-21T05:11:32;100950.06;;;12.79;100.00
46211;BME280;52144;48.040;-1.594;2023-03-21T05:14:01;100963.22;;;12.66;100.00
46211;BME280;52144;48.040;-1.594;2023-03-21T05:16:29;100966.50;;;12.89;100.00
46211;BME280;52144;48.040;-1.594;2023-03-21T05:18:59;100962.41;;;12.99;100.00
46211;BME280;52144;48.040;-1.594;2023-03-21T05:21:30;100963.25;;;12.82;100.00
46211;BME280;52144;48.040;-1.594;2023-03-21T05:23:59;100955.00;;;13.04;100.00
46211;BME280;52144;48.040;-1.594;2023-03-21T05:26:29;100947.94;;;13.03;100.00
46211;BME280;52144;48.040;-1.594;2023-03-21T05:28:56;100952.69;;;12.80;100.00
46211;BME280;52144;48.040;-1.594;2023-03-21T05:31:24;100950.19;;;13.11;100.00
46211;BME280;52144;48.040;-1.594;2023-03-21T05:33:52;100944.31;;;13.04;100.00
46211;BME280;52144;48.040;-1.594;2023-03-21T05:36:21;100942.13;;;12.95;100.00
46211;BME280;52144;48.040;-1.594;2023-03-21T05:38:49;100943.59;;;13.00;100.00
46211;BME280;52144;48.040;-1.594;2023-03-21T05:41:17;100937.47;;;12.98;100.00
46211;BME280;52144;48.040;-1.594;2023-03-21T05:43:46;100936.47;;;12.83;100.00
46211;BME280;52144;48.040;-1.594;2023-03-21T05:46:14;100947.22;;;12.82;100.00
46211;BME280;52144;48.040;-1.594;2023-03-21T05:48:42;100947.75;;;13.06;100.00
46211;BME280;52144;48.040;-1.594;2023-03-21T05:51:10;100946.91;;;13.05;100.00
46211;BME280;52144;48.040;-1.594;2023-03-21T05:53:39;100936.59;;;13.15;100.00
46211;BME280;52144;48.040;-1.594;2023-03-21T05:56:07;100941.31;;;13.10;100.00
46211;BME280;52144;48.040;-1.594;2023-03-21T05:58:35;100937.00;;;12.90;100.00
46211;BME280;52144;48.040;-1.594;2023-03-21T06:01:04;100942.66;;;13.19;100.00
46211;BME280;52144;48.040;-1.594;2023-03-21T06:03:31;100931.41;;;13.30;100.00
46211;BME280;52144;48.040;-1.594;2023-03-21T06:05:59;100940.81;;;13.37;100.00
46211;BME280;52144;48.040;-1.594;2023-03-21T06:08:29;100935.94;;;13.28;100.00
46211;BME280;52144;48.040;-1.594;2023-03-21T06:10:58;100948.06;;;13.17;100.00
46211;BME280;52144;48.040;-1.594;2023-03-21T06:13:26;100939.81;;;13.39;100.00
46211;BME280;52144;48.040;-1.594;2023-03-21T06:15:54;100941.44;;;13.42;100.00
46211;BME280;52144;48.040;-1.594;2023-03-21T06:18:22;100940.31;;;13.29;100.00
46211;BME280;52144;48.040;-1.594;2023-03-21T06:20:50;100945.16;;;13.04;100.00
46211;BME280;52144;48.040;-1.594;2023-03-21T06:23:17;100938.47;;;13.13;100.00
46211;BME280;52144;48.040;-1.594;2023-03-21T06:25:46;100939.19;;;13.17;100.00
46211;BME280;52144;48.040;-1.594;2023-03-21T06:28:16;100945.59;;;12.79;100.00
46211;BME280;52144;48.040;-1.594;2023-03-21T06:30:43;100945.22;;;13.20;100.00
46211;BME280;52144;48.040;-1.594;2023-03-21T06:33:11;100943.75;;;13.32;100.00
46211;BME280;52144;48.040;-1.594;2023-03-21T06:35:39;100948.53;;;13.25;100.00
46211;BME280;52144;48.040;-1.594;2023-03-21T06:38:07;100944.22;;;13.23;100.00
46211;BME280;52144;48.040;-1.594;2023-03-21T06:40:36;100952.00;;;13.28;100.00
46211;BME280;52144;48.040;-1.594;2023-03-21T06:43:04;100949.47;;;13.42;100.00
46211;BME280;52144;48.040;-1.594;2023-03-21T06:45:33;100939.94;;;13.36;100.00
46211;BME280;52144;48.040;-1.594;2023-03-21T06:48:01;100940.09;;;13.67;100.00
46211;BME280;52144;48.040;-1.594;2023-03-21T06:50:29;100942.13;;;12.77;100.00
46211;BME280;52144;48.040;-1.594;2023-03-21T06:52:57;100943.19;;;13.25;100.00
46211;BME280;52144;48.040;-1.594;2023-03-21T06:55:25;100938.47;;;13.31;100.00
46211;BME280;52144;48.040;-1.594;2023-03-21T06:57:55;100934.78;;;13.49;100.00
46211;BME280;52144;48.040;-1.594;2023-03-21T07:00:24;100929.63;;;13.46;100.00
46211;BME280;52144;48.040;-1.594;2023-03-21T07:02:53;100926.31;;;13.41;100.00
46211;BME280;52144;48.040;-1.594;2023-03-21T07:05:21;100926.34;;;13.23;100.00
46211;BME280;52144;48.040;-1.594;2023-03-21T07:07:48;100926.09;;;13.28;100.00
46211;BME280;52144;48.040;-1.594;2023-03-21T07:10:16;100931.34;;;13.63;100.00
46211;BME280;52144;48.040;-1.594;2023-03-21T07:12:44;100936.56;;;13.33;100.00
46211;BME280;52144;48.040;-1.594;2023-03-21T07:15:12;100941.31;;;13.77;100.00
46211;BME280;52144;48.040;-1.594;2023-03-21T07:17:39;100942.25;;;14.08;100.00
46211;BME280;52144;48.040;-1.594;2023-03-21T07:20:10;100950.22;;;14.09;100.00
46211;BME280;52144;48.040;-1.594;2023-03-21T07:22:38;100951.69;;;14.15;100.00
46211;BME280;52144;48.040;-1.594;2023-03-21T07:25:07;100951.25;;;14.07;100.00
46211;BME280;52144;48.040;-1.594;2023-03-21T07:27:36;100952.34;;;14.18;100.00
46211;BME280;52144;48.040;-1.594;2023-03-21T07:30:08;100953.75;;;14.25;100.00
46211;BME280;52144;48.040;-1.594;2023-03-21T07:32:37;100955.22;;;14.31;100.00
46211;BME280;52144;48.040;-1.594;2023-03-21T07:35:06;100959.69;;;14.31;100.00
46211;BME280;52144;48.040;-1.594;2023-03-21T07:37:36;100954.09;;;14.19;100.00
46211;BME280;52144;48.040;-1.594;2023-03-21T07:40:04;100960.50;;;14.17;100.00
46211;BME280;52144;48.040;-1.594;2023-03-21T07:42:35;100961.69;;;14.27;100.00
46211;BME280;52144;48.040;-1.594;2023-03-21T07:45:04;100965.16;;;14.13;100.00
46211;BME280;52144;48.040;-1.594;2023-03-21T07:47:33;100964.03;;;14.01;100.00
46211;BME280;52144;48.040;-1.594;2023-03-21T07:50:02;100971.28;;;13.99;100.00
46211;BME280;52144;48.040;-1.594;2023-03-21T07:52:31;100967.22;;;14.24;100.00
46211;BME280;52144;48.040;-1.594;2023-03-21T07:55:00;100966.94;;;14.44;100.00
46211;BME280;52144;48.040;-1.594;2023-03-21T07:57:28;100967.50;;;14.35;100.00
46211;BME280;52144;48.040;-1.594;2023-03-21T07:59:56;100974.91;;;14.30;100.00
46211;BME280;52144;48.040;-1.594;2023-03-21T08:02:24;100976.16;;;14.71;100.00
46211;BME280;52144;48.040;-1.594;2023-03-21T08:04:52;100973.16;;;14.61;100.00
46211;BME280;52144;48.040;-1.594;2023-03-21T08:07:19;100964.84;;;14.96;100.00
46211;BME280;52144;48.040;-1.594;2023-03-21T08:09:47;100970.91;;;15.14;100.00
46211;BME280;52144;48.040;-1.594;2023-03-21T08:12:16;100981.94;;;15.23;100.00
46211;BME280;52144;48.040;-1.594;2023-03-21T08:14:44;100985.41;;;14.81;100.00
46211;BME280;52144;48.040;-1.594;2023-03-21T08:17:12;100985.06;;;14.71;100.00
46211;BME280;52144;48.040;-1.594;2023-03-21T08:19:40;100990.97;;;14.78;100.00
46211;BME280;52144;48.040;-1.594;2023-03-21T08:22:07;100986.47;;;14.78;100.00
46211;BME280;52144;48.040;-1.594;2023-03-21T08:24:36;100993.69;;;14.92;100.00
46211;BME280;52144;48.040;-1.594;2023-03-21T08:27:04;100993.06;;;14.57;100.00
46211;BME280;52144;48.040;-1.594;2023-03-21T08:29:33;101003.88;;;14.39;100.00
46211;BME280;52144;48.040;-1.594;2023-03-21T08:32:05;100998.50;;;14.55;100.00
46211;BME280;52144;48.040;-1.594;2023-03-21T08:34:33;101005.59;;;14.72;100.00
46211;BME280;52144;48.040;-1.594;2023-03-21T08:37:02;100996.34;;;14.62;100.00
46211;BME280;52144;48.040;-1.594;2023-03-21T08:39:29;101008.63;;;14.34;100.00
46211;BME280;52144;48.040;-1.594;2023-03-21T08:41:57;101003.72;;;14.58;100.00
46211;BME280;52144;48.040;-1.594;2023-03-21T08:44:25;101015.03;;;14.48;100.00
46211;BME280;52144;48.040;-1.594;2023-03-21T08:46:54;101009.16;;;14.57;100.00
46211;BME280;52144;48.040;-1.594;2023-03-21T08:49:22;101005.16;;;14.16;100.00
46211;BME280;52144;48.040;-1.594;2023-03-21T08:51:54;101001.88;;;14.43;100.00
46211;BME280;52144;48.040;-1.594;2023-03-21T08:54:22;100999.47;;;14.70;100.00
46211;BME280;52144;48.040;-1.594;2023-03-21T08:56:50;101002.13;;;15.45;100.00
46211;BME280;52144;48.040;-1.594;2023-03-21T08:59:18;100996.88;;;14.99;100.00
46211;BME280;52144;48.040;-1.594;2023-03-21T09:01:46;100996.88;;;14.99;100.00
46211;BME280;52144;48.040;-1.594;2023-03-21T09:04:15;100997.41;;;15.49;100.00
46211;BME280;52144;48.040;-1.594;2023-03-21T09:06:44;100986.66;;;16.06;99.97
46211;BME280;52144;48.040;-1.594;2023-03-21T09:09:14;100985.66;;;15.80;97.22
46211;BME280;52144;48.040;-1.594;2023-03-21T09:11:42;100988.97;;;15.40;99.83
46211;BME280;52144;48.040;-1.594;2023-03-21T09:14:10;100980.75;;;15.87;98.42
46211;BME280;52144;48.040;-1.594;2023-03-21T09:16:38;100977.75;;;15.91;97.50
46211;BME280;52144;48.040;-1.594;2023-03-21T09:19:07;100983.25;;;15.75;95.69
46211;BME280;52144;48.040;-1.594;2023-03-21T09:21:36;100980.72;;;16.01;94.32
46211;BME280;52144;48.040;-1.594;2023-03-21T09:24:05;100973.44;;;16.30;94.20
46211;BME280;52144;48.040;-1.594;2023-03-21T09:26:32;100983.50;;;15.85;93.79
46211;BME280;52144;48.040;-1.594;2023-03-21T09:29:01;100983.84;;;16.08;92.39
46211;BME280;52144;48.040;-1.594;2023-03-21T09:31:30;100984.47;;;15.98;93.63
46211;BME280;52144;48.040;-1.594;2023-03-21T09:33:58;100983.25;;;15.75;93.43
46211;BME280;52144;48.040;-1.594;2023-03-21T09:36:26;100991.47;;;15.43;94.86
46211;BME280;52144;48.040;-1.594;2023-03-21T09:38:59;100985.13;;;15.30;94.23
46211;BME280;52144;48.040;-1.594;2023-03-21T09:41:54;100989.09;;;15.82;92.62
46211;BME280;52144;48.040;-1.594;2023-03-21T09:44:31;100996.53;;;15.62;94.84
46211;BME280;52144;48.040;-1.594;2023-03-21T09:47:08;100999.44;;;15.31;94.80
46211;BME280;52144;48.040;-1.594;2023-03-21T09:49:48;101006.19;;;15.22;95.72
46211;BME280;52144;48.040;-1.594;2023-03-21T09:52:28;101000.06;;;15.20;97.08
46211;BME280;52144;48.040;-1.594;2023-03-21T09:54:58;101003.06;;;15.30;96.87
46211;BME280;52144;48.040;-1.594;2023-03-21T09:57:30;101011.59;;;15.36;98.17
46211;BME280;52144;48.040;-1.594;2023-03-21T10:00:04;101018.41;;;14.35;100.00
46211;BME280;52144;48.040;-1.594;2023-03-21T10:02:42;101017.19;;;14.09;100.00
46211;BME280;52144;48.040;-1.594;2023-03-21T10:05:16;101003.50;;;14.77;100.00
46211;BME280;52144;48.040;-1.594;2023-03-21T10:07:47;101004.78;;;14.86;100.00
46211;BME280;52144;48.040;-1.594;2023-03-21T10:10:23;101011.03;;;15.01;100.00
46211;BME280;52144;48.040;-1.594;2023-03-21T10:12:53;100997.72;;;14.99;100.00
46211;BME280;52144;48.040;-1.594;2023-03-21T10:15:24;101004.91;;;14.69;100.00
46211;BME280;52144;48.040;-1.594;2023-03-21T10:17:57;101011.47;;;15.23;100.00
46211;BME280;52144;48.040;-1.594;2023-03-21T10:20:29;101005.75;;;15.44;97.91
46211;BME280;52144;48.040;-1.594;2023-03-21T10:23:00;101004.53;;;15.93;97.08
46211;BME280;52144;48.040;-1.594;2023-03-21T10:25:33;101000.09;;;16.48;95.85
46211;BME280;52144;48.040;-1.594;2023-03-21T10:28:04;100997.03;;;15.69;93.35
46211;BME280;52144;48.040;-1.594;2023-03-21T10:30:37;100995.75;;;16.18;94.64
46211;BME280;52144;48.040;-1.594;2023-03-21T10:33:11;100994.09;;;16.30;91.09
46211;BME280;52144;48.040;-1.594;2023-03-21T10:35:44;100986.66;;;16.06;91.73
46211;BME280;52144;48.040;-1.594;2023-03-21T10:38:15;100982.44;;;16.16;88.37
46211;BME280;52144;48.040;-1.594;2023-03-21T10:40:45;100988.38;;;16.49;85.08
46211;BME280;52144;48.040;-1.594;2023-03-21T10:43:33;100981.94;;;16.10;87.82
46211;BME280;52144;48.040;-1.594;2023-03-21T10:46:08;100984.25;;;17.36;84.68
46211;BME280;52144;48.040;-1.594;2023-03-21T10:48:39;100981.75;;;17.84;79.78
46211;BME280;52144;48.040;-1.594;2023-03-21T10:51:16;100973.06;;;17.55;77.05
46211;BME280;52144;48.040;-1.594;2023-03-21T10:53:49;100967.66;;;17.16;75.11
46211;BME280;52144;48.040;-1.594;2023-03-21T10:56:22;100960.75;;;17.38;76.75
46211;BME280;52144;48.040;-1.594;2023-03-21T10:58:55;100962.28;;;17.16;74.74
46211;BME280;52144;48.040;-1.594;2023-03-21T11:01:27;100960.75;;;16.99;74.39
46211;BME280;52144;48.040;-1.594;2023-03-21T11:03:58;100955.81;;;17.06;73.60
46211;BME280;52144;48.040;-1.594;2023-03-21T11:06:29;100955.47;;;17.49;69.83
46211;BME280;52144;48.040;-1.594;2023-03-21T11:09:00;100957.94;;;17.52;70.42
46211;BME280;52144;48.040;-1.594;2023-03-21T11:11:37;100956.91;;;17.16;70.17
46211;BME280;52144;48.040;-1.594;2023-03-21T11:14:07;100958.06;;;17.12;71.07
46211;BME280;52144;48.040;-1.594;2023-03-21T11:16:37;100965.63;;;17.33;70.79
46211;BME280;52144;48.040;-1.594;2023-03-21T11:19:14;100962.25;;;17.42;69.95
46211;BME280;52144;48.040;-1.594;2023-03-21T11:21:42;100958.56;;;17.69;69.43
46211;BME280;52144;48.040;-1.594;2023-03-21T11:24:13;100960.00;;;18.11;71.03
46211;BME280;52144;48.040;-1.594;2023-03-21T11:26:44;100958.69;;;18.17;67.47
46211;BME280;52144;48.040;-1.594;2023-03-21T11:29:24;100970.63;;;18.74;67.50
46211;BME280;52144;48.040;-1.594;2023-03-21T11:31:57;100977.13;;;17.86;66.59
46211;BME280;52144;48.040;-1.594;2023-03-21T11:34:31;100977.94;;;18.36;68.12
46211;BME280;52144;48.040;-1.594;2023-03-21T11:37:01;100980.34;;;17.78;67.25
46211;BME280;52144;48.040;-1.594;2023-03-21T11:39:31;100985.97;;;17.75;65.99
46211;BME280;52144;48.040;-1.594;2023-03-21T11:42:01;100977.56;;;17.41;67.48
46211;BME280;52144;48.040;-1.594;2023-03-21T11:44:31;100960.84;;;18.49;64.62
46211;BME280;52144;48.040;-1.594;2023-03-21T11:47:00;100971.19;;;18.66;65.73
46211;BME280;52144;48.040;-1.594;2023-03-21T11:49:28;100958.91;;;19.21;62.11
46211;BME280;52144;48.040;-1.594;2023-03-21T11:52:08;100961.47;;;18.52;63.41
46211;BME280;52144;48.040;-1.594;2023-03-21T11:54:52;100958.81;;;18.39;63.27
46211;BME280;52144;48.040;-1.594;2023-03-21T11:57:30;100958.78;;;19.45;60.85
46211;BME280;52144;48.040;-1.594;2023-03-21T12:00:09;100975.34;;;18.59;64.79
46211;BME280;52144;48.040;-1.594;2023-03-21T12:06:00;100959.78;;;18.14;61.95
46211;BME280;52144;48.040;-1.594;2023-03-21T12:08:36;100966.03;;;18.15;64.07
46211;BME280;52144;48.040;-1.594;2023-03-21T12:11:13;100975.47;;;18.33;62.28
46211;BME280;52144;48.040;-1.594;2023-03-21T12:13:56;100972.38;;;17.77;64.03
46211;BME280;52144;48.040;-1.594;2023-03-21T12:16:48;100970.69;;;17.37;64.36
46211;BME280;52144;48.040;-1.594;2023-03-21T12:19:42;100978.44;;;17.29;64.91
46211;BME280;52144;48.040;-1.594;2023-03-21T12:22:23;100972.34;;;16.87;65.73
46211;BME280;52144;48.040;-1.594;2023-03-21T12:24:55;100956.50;;;16.42;65.88
46211;BME280;52144;48.040;-1.594;2023-03-21T12:27:32;100965.72;;;17.18;64.12
46211;BME280;52144;48.040;-1.594;2023-03-21T12:30:16;100966.28;;;17.36;62.55
46211;BME280;52144;48.040;-1.594;2023-03-21T12:32:57;100966.72;;;17.30;63.71
46211;BME280;52144;48.040;-1.594;2023-03-21T12:35:40;100956.88;;;17.03;65.62
46211;BME280;52144;48.040;-1.594;2023-03-21T12:38:15;100959.50;;;17.18;66.48
46211;BME280;52144;48.040;-1.594;2023-03-21T12:40:56;100952.25;;;17.18;67.53
46211;BME280;52144;48.040;-1.594;2023-03-21T12:43:35;100953.41;;;17.91;65.52
46211;BME280;52144;48.040;-1.594;2023-03-21T12:46:12;100952.44;;;18.64;63.97
46211;BME280;52144;48.040;-1.594;2023-03-21T12:48:44;100952.94;;;18.21;61.69
46211;BME280;52144;48.040;-1.594;2023-03-21T12:51:16;100949.00;;;18.14;62.37
46211;BME280;52144;48.040;-1.594;2023-03-21T12:53:52;100947.31;;;18.73;61.58
46211;BME280;52144;48.040;-1.594;2023-03-21T12:56:25;100938.03;;;18.04;61.00
46211;BME280;52144;48.040;-1.594;2023-03-21T12:58:57;100938.53;;;17.86;60.94
46211;BME280;52144;48.040;-1.594;2023-03-21T13:01:28;100928.84;;;17.83;59.54
46211;BME280;52144;48.040;-1.594;2023-03-21T13:04:14;100936.91;;;18.44;58.35
46211;BME280;52144;48.040;-1.594;2023-03-21T13:06:46;100932.72;;;18.75;55.75
46211;BME280;52144;48.040;-1.594;2023-03-21T13:09:19;100939.56;;;18.68;56.17
46211;BME280;52144;48.040;-1.594;2023-03-21T13:12:10;100931.16;;;18.49;55.16